createdAt,value
2022-12-20T00:02:51.707Z,7.40
2022-12-20T00:04:03.990Z,8.70
2022-12-20T00:06:55.711Z,7.30
2022-12-20T00:08:09.102Z,8.70
2022-12-20T00:11:02.300Z,7.40
2022-12-20T00:12:12.497Z,8.70
2022-12-20T00:15:06.432Z,7.30
2022-12-20T00:16:18.572Z,8.70
2022-12-20T00:19:11.828Z,7.40
2022-12-20T00:20:25.532Z,8.70
2022-12-20T00:23:15.562Z,7.40
2022-12-20T00:24:31.145Z,8.70
2022-12-20T00:27:19.407Z,7.40
2022-12-20T00:28:36.739Z,8.70
2022-12-20T00:32:40.402Z,8.70
2022-12-20T00:36:44.324Z,8.70
2022-12-20T00:40:47.767Z,8.70
2022-12-20T00:44:51.894Z,8.70
2022-12-20T00:48:57.013Z,8.60
2022-12-20T00:53:01.313Z,8.70
2022-12-20T00:57:04.782Z,8.70
2022-12-20T01:01:25.721Z,8.60
2022-12-20T01:05:29.887Z,8.50
2022-12-20T01:09:33.377Z,8.50
2022-12-20T01:13:40.534Z,8.40
2022-12-20T01:17:44.155Z,8.40
2022-12-20T01:21:48.918Z,8.30
2022-12-20T01:25:53.024Z,8.40
2022-12-20T01:29:56.383Z,8.40
2022-12-20T01:34:00.985Z,8.30
2022-12-20T01:38:04.644Z,8.40
2022-12-20T01:42:13.838Z,8.40
2022-12-20T01:46:17.790Z,8.40
2022-12-20T01:50:21.590Z,8.40
2022-12-20T01:54:30.130Z,8.40
2022-12-20T01:58:39.211Z,8.40
2022-12-20T02:02:46.071Z,8.30
2022-12-20T02:06:49.457Z,8.30
2022-12-20T02:11:11.098Z,8.30
2022-12-20T02:16:01.029Z,8.20
2022-12-20T02:20:19.134Z,8.20
2022-12-20T02:25:21.375Z,8.20
2022-12-20T02:29:31.890Z,8.20
2022-12-20T02:33:36.297Z,8.20
2022-12-20T02:38:03.329Z,8.20
2022-12-20T02:42:19.919Z,8.20
2022-12-20T02:46:25.373Z,8.20
2022-12-20T02:50:36.925Z,8.20
2022-12-20T02:54:40.499Z,8.20
2022-12-20T02:58:53.814Z,8.20
2022-12-20T03:03:18.658Z,8.20
2022-12-20T03:07:22.753Z,8.20
2022-12-20T03:11:26.255Z,8.20
2022-12-20T03:15:30.538Z,8.20
2022-12-20T03:19:37.208Z,8.20
2022-12-20T03:23:40.537Z,8.10
2022-12-20T03:27:44.396Z,8.20
2022-12-20T03:31:47.980Z,8.20
2022-12-20T03:35:51.348Z,8.20
2022-12-20T03:39:55.846Z,8.20
2022-12-20T03:43:59.255Z,8.10
2022-12-20T03:48:03.623Z,8.10
2022-12-20T03:52:08.863Z,8.10
2022-12-20T03:56:12.837Z,8.00
2022-12-20T04:00:18.245Z,8.00
2022-12-20T04:04:24.919Z,8.00
2022-12-20T04:08:28.220Z,8.00
2022-12-20T04:12:32.131Z,8.10
2022-12-20T04:16:36.785Z,8.10
2022-12-20T04:20:42.506Z,8.10
2022-12-20T04:24:55.289Z,8.10
2022-12-20T04:29:01.183Z,8.10
2022-12-20T04:33:04.959Z,8.00
2022-12-20T04:37:09.150Z,8.00
2022-12-20T04:41:23.180Z,8.00
2022-12-20T04:45:34.148Z,8.00
2022-12-20T04:49:38.003Z,8.10
2022-12-20T04:53:50.474Z,8.10
2022-12-20T04:58:11.947Z,8.10
2022-12-20T05:02:17.929Z,8.10
2022-12-20T05:06:38.415Z,8.20
2022-12-20T05:10:43.412Z,8.20
2022-12-20T05:14:46.764Z,8.20
2022-12-20T05:18:53.233Z,8.20
2022-12-20T05:23:16.434Z,8.20
2022-12-20T05:27:25.273Z,8.20
2022-12-20T05:31:29.194Z,8.20
2022-12-20T05:35:33.977Z,8.30
2022-12-20T05:38:33.909Z,7.40
2022-12-20T05:39:43.413Z,8.30
2022-12-20T05:42:42.931Z,7.50
2022-12-20T05:43:53.292Z,8.30
2022-12-20T05:46:47.441Z,7.50
2022-12-20T05:47:57.037Z,8.40
2022-12-20T05:50:58.996Z,7.40
2022-12-20T05:52:02.646Z,8.40
2022-12-20T05:55:06.564Z,7.50
2022-12-20T05:56:08.364Z,8.40
2022-12-20T05:59:18.519Z,7.50
2022-12-20T06:00:17.566Z,8.40
2022-12-20T06:03:24.102Z,7.40
2022-12-20T06:04:21.373Z,8.40
2022-12-20T06:07:47.293Z,7.40
2022-12-20T06:08:26.088Z,8.50
2022-12-20T06:11:51.912Z,7.40
2022-12-20T06:12:33.551Z,8.50
2022-12-20T06:15:55.876Z,7.40
2022-12-20T06:16:37.206Z,8.50
2022-12-20T06:20:00.011Z,7.40
2022-12-20T06:20:42.618Z,8.50
2022-12-20T06:24:04.560Z,7.40
2022-12-20T06:24:50.054Z,8.50
2022-12-20T06:28:09.500Z,7.40
2022-12-20T06:29:02.346Z,8.50
2022-12-20T06:32:13.991Z,7.40
2022-12-20T06:33:14.721Z,8.50
2022-12-20T06:36:17.895Z,7.40
2022-12-20T06:37:18.066Z,8.50
2022-12-20T06:40:22.444Z,7.40
2022-12-20T06:41:21.454Z,8.50
2022-12-20T06:44:26.455Z,7.40
2022-12-20T06:45:25.359Z,8.50
2022-12-20T06:48:30.791Z,7.50
2022-12-20T06:49:30.257Z,8.50
2022-12-20T06:52:35.089Z,7.50
2022-12-20T06:53:35.538Z,8.50
2022-12-20T06:56:41.591Z,7.50
2022-12-20T06:57:39.435Z,8.50
2022-12-20T07:00:48.504Z,7.60
2022-12-20T07:01:43.558Z,8.40
2022-12-20T07:04:52.241Z,7.70
2022-12-20T07:05:55.649Z,8.40
2022-12-20T07:08:56.578Z,7.70
2022-12-20T07:09:59.629Z,8.50
2022-12-20T07:13:00.436Z,7.80
2022-12-20T07:14:02.930Z,8.50
2022-12-20T07:17:05.836Z,7.80
2022-12-20T07:18:07.225Z,8.60
2022-12-20T07:21:10.253Z,7.80
2022-12-20T07:22:10.455Z,8.60
2022-12-20T07:25:13.924Z,7.80
2022-12-20T07:26:14.841Z,8.60
2022-12-20T07:29:17.688Z,7.80
2022-12-20T07:30:19.537Z,8.70
2022-12-20T07:33:21.503Z,7.90
2022-12-20T07:34:22.981Z,8.70
2022-12-20T07:37:25.466Z,7.80
2022-12-20T07:38:26.650Z,8.70
2022-12-20T07:41:29.615Z,7.90
2022-12-20T07:42:35.756Z,8.70
2022-12-20T07:45:34.333Z,7.90
2022-12-20T07:46:42.465Z,8.70
2022-12-20T07:49:38.252Z,7.90
2022-12-20T07:50:45.829Z,8.70
2022-12-20T07:53:48.883Z,8.00
2022-12-20T07:54:56.288Z,8.70
2022-12-20T07:57:57.945Z,8.10
2022-12-20T07:59:02.132Z,8.70
2022-12-20T08:02:04.901Z,8.20
2022-12-20T08:03:20.466Z,8.70
2022-12-20T08:06:09.702Z,8.20
2022-12-20T08:07:24.799Z,8.80
2022-12-20T08:10:16.731Z,8.20
2022-12-20T08:11:31.549Z,8.80
2022-12-20T08:14:21.313Z,8.30
2022-12-20T08:15:36.425Z,8.90
2022-12-20T08:18:25.213Z,8.30
2022-12-20T08:19:39.733Z,9.00
2022-12-20T08:22:28.991Z,8.40
2022-12-20T08:23:43.143Z,9.20
2022-12-20T08:26:39.055Z,8.40
2022-12-20T08:27:47.542Z,9.20
2022-12-20T08:30:42.765Z,8.50
2022-12-20T08:31:51.344Z,9.30
2022-12-20T08:34:48.751Z,8.50
2022-12-20T08:36:00.618Z,9.30
2022-12-20T08:38:52.602Z,8.50
2022-12-20T08:40:04.498Z,9.20
2022-12-20T08:42:56.546Z,8.60
2022-12-20T08:44:08.367Z,9.30
2022-12-20T08:47:00.147Z,8.70
2022-12-20T08:48:11.715Z,9.30
2022-12-20T08:51:06.644Z,8.90
2022-12-20T08:52:15.046Z,9.30
2022-12-20T08:55:12.946Z,9.00
2022-12-20T08:56:19.044Z,9.50
2022-12-20T08:59:17.023Z,9.20
2022-12-20T09:00:22.411Z,9.50
2022-12-20T09:03:20.904Z,9.20
2022-12-20T09:04:25.798Z,9.50
2022-12-20T09:07:24.834Z,9.20
2022-12-20T09:08:29.173Z,9.50
2022-12-20T09:11:28.994Z,9.30
2022-12-20T09:12:37.765Z,9.40
2022-12-20T09:15:35.573Z,9.40
2022-12-20T09:16:41.961Z,9.40
2022-12-20T09:19:39.546Z,9.50
2022-12-20T09:20:48.575Z,9.50
2022-12-20T09:23:43.419Z,9.60
2022-12-20T09:24:51.927Z,9.50
2022-12-20T09:27:47.146Z,9.80
2022-12-20T09:28:59.223Z,9.50
2022-12-20T09:31:51.020Z,9.90
2022-12-20T09:33:10.068Z,9.70
2022-12-20T09:35:55.074Z,9.90
2022-12-20T09:37:14.007Z,9.70
2022-12-20T09:39:59.305Z,9.90
2022-12-20T09:41:34.522Z,9.70
2022-12-20T09:44:19.269Z,10.00
2022-12-20T09:45:39.307Z,9.70
2022-12-20T09:48:34.193Z,10.20
2022-12-20T09:49:47.294Z,9.80
2022-12-20T09:53:06.827Z,10.40
2022-12-20T09:54:18.925Z,10.00
2022-12-20T09:57:29.118Z,10.40
2022-12-20T09:58:29.145Z,10.20
2022-12-20T10:01:39.538Z,10.50
2022-12-20T10:05:54.232Z,10.60
2022-12-20T10:07:11.901Z,10.40
2022-12-20T10:10:01.339Z,10.80
2022-12-20T10:11:15.232Z,10.50
2022-12-20T10:14:20.173Z,10.90
2022-12-20T10:15:33.782Z,10.70
2022-12-20T10:18:42.231Z,11.00
2022-12-20T10:20:06.890Z,10.70
2022-12-20T10:22:49.124Z,11.20
2022-12-20T10:24:17.646Z,10.80
2022-12-20T10:26:52.860Z,11.40
2022-12-20T10:28:27.212Z,11.00
2022-12-20T10:31:02.707Z,11.50
2022-12-20T10:32:31.708Z,11.10
2022-12-20T10:35:15.542Z,11.50
2022-12-20T10:36:37.440Z,11.20
2022-12-20T10:39:41.219Z,11.50
2022-12-20T10:41:19.519Z,11.30
2022-12-20T10:43:51.741Z,11.60
2022-12-20T10:45:37.659Z,11.40
2022-12-20T10:48:00.632Z,11.80
2022-12-20T10:49:41.283Z,11.50
2022-12-20T10:52:13.638Z,12.00
2022-12-20T10:54:02.517Z,11.60
2022-12-20T10:56:24.852Z,12.10
2022-12-20T10:58:15.291Z,11.80
2022-12-20T11:00:30.732Z,12.20
2022-12-20T11:04:39.211Z,12.10
2022-12-20T11:08:51.085Z,12.20
2022-12-20T11:13:00.679Z,12.20
2022-12-20T11:17:17.865Z,12.20
2022-12-20T11:21:44.977Z,12.30
2022-12-20T11:25:55.374Z,12.50
2022-12-20T11:30:17.559Z,12.90
2022-12-20T11:34:55.479Z,13.20
2022-12-20T11:39:20.109Z,13.50
2022-12-20T11:44:24.655Z,13.40
2022-12-20T11:48:26.081Z,13.40
2022-12-20T11:52:55.142Z,13.30
2022-12-20T11:57:11.248Z,13.30
2022-12-20T12:01:21.810Z,13.30
2022-12-20T12:05:28.788Z,13.50
2022-12-20T12:09:40.862Z,13.50
2022-12-20T12:13:45.636Z,13.70
2022-12-20T12:17:55.355Z,13.80
2022-12-20T12:22:06.195Z,13.90
2022-12-20T12:26:19.239Z,13.90
2022-12-20T12:30:23.338Z,13.90
2022-12-20T12:35:04.531Z,14.00
2022-12-20T12:36:56.991Z,16.70
2022-12-20T12:39:35.900Z,14.00
2022-12-20T12:41:14.336Z,16.60
2022-12-20T12:43:46.684Z,13.80
2022-12-20T12:45:43.443Z,17.20
2022-12-20T12:48:00.008Z,13.50
2022-12-20T12:49:51.084Z,17.70
2022-12-20T12:52:07.450Z,13.20
2022-12-20T12:54:04.078Z,18.20
2022-12-20T12:56:46.909Z,13.00
2022-12-20T12:58:32.430Z,18.50
2022-12-20T13:01:02.888Z,13.10
2022-12-20T13:02:49.005Z,18.60
2022-12-20T13:05:09.713Z,13.30
2022-12-20T13:06:56.595Z,18.50
2022-12-20T13:09:36.803Z,13.50
2022-12-20T13:11:01.999Z,18.20
2022-12-20T13:13:40.675Z,13.70
2022-12-20T13:15:21.206Z,18.20
2022-12-20T13:17:58.729Z,13.80
2022-12-20T13:19:27.573Z,18.20
2022-12-20T13:22:26.800Z,13.90
2022-12-20T13:23:30.864Z,18.00
2022-12-20T13:26:51.143Z,13.90
2022-12-20T13:27:41.035Z,17.50
2022-12-20T13:31:01.173Z,13.90
2022-12-20T13:31:49.548Z,16.90
2022-12-20T13:35:26.507Z,13.90
2022-12-20T13:36:05.202Z,16.40
2022-12-20T13:39:36.380Z,13.90
2022-12-20T13:40:21.957Z,15.90
2022-12-20T13:43:46.944Z,13.80
2022-12-20T13:44:45.413Z,15.60
2022-12-20T13:48:11.407Z,13.70
2022-12-20T13:48:57.432Z,15.20
2022-12-20T13:52:33.395Z,13.60
2022-12-20T13:56:50.797Z,13.50
2022-12-20T14:01:04.062Z,13.50
2022-12-20T14:05:15.115Z,13.50
2022-12-20T14:09:35.414Z,13.50
2022-12-20T14:13:39.996Z,13.40
2022-12-20T14:17:44.977Z,13.20
2022-12-20T14:21:50.149Z,13.00
2022-12-20T14:25:55.640Z,12.80
2022-12-20T14:30:00.585Z,12.60
2022-12-20T14:34:14.687Z,12.50
2022-12-20T14:38:30.885Z,12.50
2022-12-20T14:42:38.733Z,12.40
2022-12-20T14:46:53.908Z,12.30
2022-12-20T14:51:06.029Z,12.20
2022-12-20T14:55:22.470Z,12.20
2022-12-20T14:59:32.341Z,12.10
2022-12-20T15:03:36.555Z,12.00
2022-12-20T15:07:42.740Z,12.00
2022-12-20T15:11:47.894Z,11.90
2022-12-20T15:15:53.193Z,11.70
2022-12-20T15:19:57.256Z,11.50
2022-12-20T15:24:08.231Z,11.30
2022-12-20T15:28:20.157Z,11.00
2022-12-20T15:32:32.457Z,10.80
2022-12-20T15:36:36.366Z,10.60
2022-12-20T15:40:41.166Z,10.50
2022-12-20T15:44:45.385Z,10.50
2022-12-20T15:48:50.610Z,10.50
2022-12-20T15:52:54.599Z,10.50
2022-12-20T15:57:03.516Z,10.60
2022-12-20T16:01:12.791Z,10.60
2022-12-20T16:05:16.835Z,10.70
2022-12-20T16:09:21.747Z,10.70
2022-12-20T16:13:26.435Z,10.70
2022-12-20T16:17:31.538Z,10.70
2022-12-20T16:21:42.567Z,10.70
2022-12-20T16:25:47.365Z,10.60
2022-12-20T16:29:51.560Z,10.60
2022-12-20T16:34:13.388Z,10.50
2022-12-20T16:38:18.876Z,10.50
2022-12-20T16:42:33.133Z,10.40
2022-12-20T16:46:38.703Z,10.40
2022-12-20T16:50:44.041Z,10.40
2022-12-20T16:54:48.102Z,10.40
2022-12-20T16:59:17.810Z,10.30
2022-12-20T17:03:16.320Z,10.40
2022-12-20T17:07:20.891Z,10.30
2022-12-20T17:11:26.063Z,10.20
2022-12-20T17:15:32.406Z,10.20
2022-12-20T17:19:36.295Z,10.20
2022-12-20T17:23:42.049Z,10.20
2022-12-20T17:27:46.109Z,10.10
2022-12-20T17:31:50.620Z,10.10
2022-12-20T17:35:54.729Z,10.00
2022-12-20T17:39:59.037Z,10.00
2022-12-20T17:44:03.678Z,9.90
2022-12-20T17:48:07.708Z,9.70
2022-12-20T17:52:15.888Z,9.60
2022-12-20T17:56:31.464Z,9.60
2022-12-20T18:00:39.377Z,9.60
2022-12-20T18:04:45.381Z,9.60
2022-12-20T18:08:50.422Z,9.60
2022-12-20T18:12:54.314Z,9.60
2022-12-20T18:16:59.509Z,9.60
2022-12-20T18:21:05.386Z,9.60
2022-12-20T18:25:10.064Z,9.60
2022-12-20T18:29:15.036Z,9.60
2022-12-20T18:33:19.125Z,9.60
2022-12-20T18:37:23.155Z,9.60
2022-12-20T18:41:29.535Z,9.50
2022-12-20T18:45:35.175Z,9.40
2022-12-20T18:49:39.227Z,9.20
2022-12-20T18:53:45.298Z,9.00
2022-12-20T18:57:49.301Z,9.00
2022-12-20T19:01:53.728Z,9.00
2022-12-20T19:05:58.550Z,9.10
2022-12-20T19:10:02.389Z,9.20
2022-12-20T19:14:08.050Z,9.20
2022-12-20T19:18:12.295Z,9.10
2022-12-20T19:22:16.333Z,9.10
2022-12-20T19:26:23.605Z,9.10
2022-12-20T19:30:28.239Z,9.10
2022-12-20T19:34:32.034Z,9.20
2022-12-20T19:38:36.132Z,9.30
2022-12-20T19:42:43.755Z,9.40
2022-12-20T19:46:47.887Z,9.40
2022-12-20T19:50:53.026Z,9.40
2022-12-20T19:54:58.015Z,9.40
2022-12-20T19:59:02.824Z,9.40
2022-12-20T20:03:09.750Z,9.40
2022-12-20T20:07:14.109Z,9.40
2022-12-20T20:11:19.624Z,9.30
2022-12-20T20:15:23.516Z,9.30
2022-12-20T20:19:27.355Z,9.30
2022-12-20T20:23:32.370Z,9.20
2022-12-20T20:27:36.359Z,9.20
2022-12-20T20:31:40.424Z,9.20
2022-12-20T20:35:55.602Z,9.10
2022-12-20T20:40:00.181Z,9.10
2022-12-20T20:44:05.844Z,9.10
2022-12-20T20:48:11.782Z,9.00
2022-12-20T20:52:16.445Z,9.00
2022-12-20T20:56:22.258Z,8.90
2022-12-20T21:00:33.634Z,8.70
2022-12-20T21:04:46.546Z,8.60
2022-12-20T21:09:05.400Z,8.50
2022-12-20T21:13:12.782Z,8.30
2022-12-20T21:17:21.327Z,8.00
2022-12-20T21:21:28.724Z,7.70
2022-12-20T21:25:35.791Z,7.50
2022-12-20T21:29:41.912Z,7.30
2022-12-20T21:33:47.656Z,7.20
2022-12-20T21:37:51.747Z,7.00
2022-12-20T21:42:01.854Z,6.90
2022-12-20T21:46:11.722Z,6.80
2022-12-20T21:50:16.034Z,6.60
2022-12-20T21:54:20.621Z,6.50
2022-12-20T21:58:29.522Z,6.40
2022-12-20T22:02:33.767Z,6.40
2022-12-20T22:06:37.899Z,6.60
2022-12-20T22:10:42.699Z,6.80
2022-12-20T22:14:46.411Z,7.00
2022-12-20T22:18:52.778Z,7.20
2022-12-20T22:22:56.985Z,7.30
2022-12-20T22:27:02.821Z,7.50
2022-12-20T22:31:11.498Z,7.60
2022-12-20T22:35:22.238Z,7.70
2022-12-20T22:39:26.574Z,7.70
2022-12-20T22:43:30.363Z,7.80
2022-12-20T22:47:35.352Z,7.80
2022-12-20T22:51:39.747Z,7.90
2022-12-20T22:55:45.254Z,7.90
2022-12-20T22:59:49.046Z,8.00
2022-12-20T23:03:54.489Z,8.00
2022-12-20T23:08:00.973Z,8.10
2022-12-20T23:12:23.982Z,8.10
2022-12-20T23:16:28.367Z,8.20
2022-12-20T23:20:51.641Z,8.20
2022-12-20T23:24:55.800Z,8.30
2022-12-20T23:28:59.573Z,8.30
2022-12-20T23:33:03.600Z,8.30
2022-12-20T23:37:07.551Z,8.30
2022-12-20T23:41:14.269Z,8.30
2022-12-20T23:45:18.039Z,8.30
2022-12-20T23:49:23.532Z,8.20
2022-12-20T23:53:28.313Z,8.30
2022-12-20T23:57:32.903Z,8.30
